createdAt,value
2019-03-30T00:01:15.478Z,10.20
2019-03-30T00:03:20.455Z,10.20
2019-03-30T00:05:25.501Z,10.20
2019-03-30T00:07:30.612Z,10.30
2019-03-30T00:09:36.486Z,10.20
2019-03-30T00:11:41.472Z,10.20
2019-03-30T00:13:46.460Z,10.20
2019-03-30T00:15:52.359Z,10.20
2019-03-30T00:17:58.210Z,10.20
2019-03-30T00:20:03.131Z,10.20
2019-03-30T00:22:08.082Z,10.10
2019-03-30T00:24:13.021Z,10.10
2019-03-30T00:26:17.934Z,10.10
2019-03-30T00:28:23.502Z,10.10
2019-03-30T00:30:28.491Z,10.00
2019-03-30T00:32:33.515Z,10.00
2019-03-30T00:34:38.652Z,10.00
2019-03-30T00:36:43.674Z,9.90
2019-03-30T00:38:48.568Z,9.90
2019-03-30T00:40:53.508Z,9.90
2019-03-30T00:42:58.430Z,9.90
2019-03-30T00:45:03.791Z,9.90
2019-03-30T00:47:08.738Z,9.80
2019-03-30T00:49:13.730Z,9.80
2019-03-30T00:51:18.600Z,9.90
2019-03-30T00:53:25.468Z,9.90
2019-03-30T00:55:31.541Z,9.90
2019-03-30T00:57:36.485Z,9.90
2019-03-30T00:59:42.912Z,9.90
2019-03-30T01:01:48.436Z,9.80
2019-03-30T01:03:53.404Z,9.80
2019-03-30T01:05:58.492Z,9.80
2019-03-30T01:08:03.588Z,9.70
2019-03-30T01:10:09.455Z,9.80
2019-03-30T01:12:14.881Z,9.80
2019-03-30T01:14:20.742Z,9.70
2019-03-30T01:16:25.715Z,9.60
2019-03-30T01:18:30.623Z,9.60
2019-03-30T01:20:35.608Z,9.50
2019-03-30T01:22:40.503Z,9.50
2019-03-30T01:24:45.868Z,9.50
2019-03-30T01:26:50.772Z,9.50
2019-03-30T01:28:55.716Z,9.40
2019-03-30T01:31:01.471Z,9.40
2019-03-30T01:33:08.039Z,9.40
2019-03-30T01:35:13.420Z,9.40
2019-03-30T01:37:18.605Z,9.30
2019-03-30T01:39:23.592Z,9.30
2019-03-30T01:41:28.496Z,9.20
2019-03-30T01:43:34.217Z,9.20
2019-03-30T01:45:39.427Z,9.30
2019-03-30T01:47:44.387Z,9.20
2019-03-30T01:49:49.271Z,9.20
2019-03-30T01:51:54.688Z,9.20
2019-03-30T01:53:59.893Z,9.20
2019-03-30T01:56:04.810Z,9.20
2019-03-30T01:58:09.831Z,9.20
2019-03-30T02:00:17.014Z,9.20
2019-03-30T02:02:22.025Z,9.20
2019-03-30T02:04:26.993Z,9.10
2019-03-30T02:06:32.358Z,9.10
2019-03-30T02:08:37.327Z,9.00
2019-03-30T02:10:44.315Z,9.00
2019-03-30T02:12:49.292Z,9.10
2019-03-30T02:14:54.219Z,9.00
2019-03-30T02:16:59.876Z,9.00
2019-03-30T02:19:04.961Z,8.90
2019-03-30T02:21:09.940Z,9.00
2019-03-30T02:23:14.842Z,8.90
2019-03-30T02:25:19.779Z,8.80
2019-03-30T02:27:25.350Z,8.80
2019-03-30T02:29:30.730Z,8.80
2019-03-30T02:31:35.745Z,8.80
2019-03-30T02:33:40.826Z,8.70
2019-03-30T02:35:45.787Z,8.70
2019-03-30T02:37:51.577Z,8.70
2019-03-30T02:39:56.886Z,8.70
2019-03-30T02:42:01.818Z,8.70
2019-03-30T02:44:06.790Z,8.80
2019-03-30T02:46:11.755Z,8.70
2019-03-30T02:48:16.696Z,8.70
2019-03-30T02:50:21.816Z,8.70
2019-03-30T02:52:26.885Z,8.70
2019-03-30T02:54:31.807Z,8.70
2019-03-30T02:56:37.245Z,8.70
2019-03-30T02:58:42.367Z,8.70
2019-03-30T03:00:48.220Z,8.70
2019-03-30T03:02:53.191Z,8.60
2019-03-30T03:04:58.119Z,8.60
2019-03-30T03:07:03.296Z,8.50
2019-03-30T03:09:09.312Z,8.50
2019-03-30T03:11:14.451Z,8.50
2019-03-30T03:13:19.459Z,8.50
2019-03-30T03:15:24.606Z,8.50
2019-03-30T03:17:29.485Z,8.40
2019-03-30T03:19:34.594Z,8.40
2019-03-30T03:21:40.066Z,8.30
2019-03-30T03:23:45.058Z,8.20
2019-03-30T03:25:51.100Z,8.30
2019-03-30T03:27:56.368Z,8.20
2019-03-30T03:30:01.488Z,8.30
2019-03-30T03:32:06.623Z,8.30
2019-03-30T03:34:11.710Z,8.30
2019-03-30T03:36:17.714Z,8.20
2019-03-30T03:38:22.698Z,8.30
2019-03-30T03:40:27.594Z,8.30
2019-03-30T03:42:32.543Z,8.30
2019-03-30T03:44:38.364Z,8.30
2019-03-30T03:46:43.359Z,8.40
2019-03-30T03:48:48.374Z,8.40
2019-03-30T03:50:59.937Z,8.40
2019-03-30T03:53:05.551Z,8.40
2019-03-30T03:55:10.764Z,8.40
2019-03-30T03:57:19.006Z,8.50
2019-03-30T03:59:26.330Z,8.40
2019-03-30T04:01:35.357Z,8.50
2019-03-30T04:03:42.809Z,8.60
2019-03-30T04:05:48.860Z,8.50
2019-03-30T04:07:56.603Z,8.50
2019-03-30T04:10:04.484Z,8.50
2019-03-30T04:12:11.301Z,8.50
2019-03-30T04:14:19.842Z,8.50
2019-03-30T04:16:25.337Z,8.50
2019-03-30T04:18:30.429Z,8.50
2019-03-30T04:20:35.864Z,8.50
2019-03-30T04:22:40.828Z,8.50
2019-03-30T04:24:45.694Z,8.60
2019-03-30T04:26:50.682Z,8.50
2019-03-30T04:28:55.589Z,8.50
2019-03-30T04:31:00.557Z,8.60
2019-03-30T04:33:05.595Z,8.60
2019-03-30T04:35:10.549Z,8.50
2019-03-30T04:37:15.869Z,8.50
2019-03-30T04:39:20.882Z,8.40
2019-03-30T04:41:25.845Z,8.40
2019-03-30T04:43:30.865Z,8.40
2019-03-30T04:45:35.790Z,8.50
2019-03-30T04:47:41.196Z,8.50
2019-03-30T04:49:46.093Z,8.50
2019-03-30T04:51:57.306Z,8.50
2019-03-30T04:53:58.170Z,8.50
2019-03-30T04:56:03.638Z,8.60
2019-03-30T04:58:09.461Z,8.50
2019-03-30T05:00:14.638Z,8.50
2019-03-30T05:02:20.111Z,8.60
2019-03-30T05:04:25.132Z,8.50
2019-03-30T05:06:30.048Z,8.50
2019-03-30T05:08:35.021Z,8.50
2019-03-30T05:10:39.978Z,8.50
2019-03-30T05:12:44.862Z,8.50
2019-03-30T05:14:50.049Z,8.50
2019-03-30T05:16:55.860Z,8.50
2019-03-30T05:19:00.814Z,8.40
2019-03-30T05:21:06.099Z,8.40
2019-03-30T05:23:12.013Z,8.40
2019-03-30T05:25:17.765Z,8.50
2019-03-30T05:27:22.751Z,8.50
2019-03-30T05:29:27.720Z,8.50
2019-03-30T05:31:32.972Z,8.50
2019-03-30T05:33:37.900Z,8.60
2019-03-30T05:35:42.893Z,8.60
2019-03-30T05:37:47.790Z,8.60
2019-03-30T05:39:53.651Z,8.70
2019-03-30T05:41:58.866Z,8.70
2019-03-30T05:44:04.058Z,8.70
2019-03-30T05:46:09.929Z,8.70
2019-03-30T05:48:14.830Z,8.80
2019-03-30T05:50:20.056Z,8.80
2019-03-30T05:52:26.832Z,8.70
2019-03-30T05:54:32.828Z,8.70
2019-03-30T05:56:38.552Z,8.70
2019-03-30T05:58:44.393Z,8.60
2019-03-30T06:00:49.336Z,8.50
2019-03-30T06:02:59.342Z,8.60
2019-03-30T06:05:04.825Z,8.60
2019-03-30T06:07:10.653Z,8.60
2019-03-30T06:09:16.908Z,8.60
2019-03-30T06:11:21.824Z,8.60
2019-03-30T06:13:28.404Z,8.60
2019-03-30T06:15:33.396Z,8.70
2019-03-30T06:17:39.209Z,8.80
2019-03-30T06:19:44.456Z,8.80
2019-03-30T06:21:49.823Z,8.80
2019-03-30T06:23:54.912Z,8.90
2019-03-30T06:25:59.954Z,9.00
2019-03-30T06:28:05.742Z,9.00
2019-03-30T06:30:24.151Z,9.10
2019-03-30T06:32:29.306Z,9.10
2019-03-30T06:34:34.699Z,9.10
2019-03-30T06:36:39.720Z,9.10
2019-03-30T06:38:44.998Z,9.10
2019-03-30T06:40:50.207Z,9.10
2019-03-30T06:42:55.668Z,9.10
2019-03-30T06:45:01.710Z,9.10
2019-03-30T06:47:06.958Z,9.10
2019-03-30T06:49:11.929Z,9.20
2019-03-30T06:51:18.732Z,9.20
2019-03-30T06:53:24.004Z,9.40
2019-03-30T06:55:29.433Z,9.40
2019-03-30T06:57:34.633Z,9.50
2019-03-30T06:59:40.526Z,9.60
2019-03-30T07:01:46.415Z,9.70
2019-03-30T07:03:52.562Z,9.70
2019-03-30T07:06:01.024Z,9.70
2019-03-30T07:08:07.820Z,9.80
2019-03-30T07:10:13.089Z,9.90
2019-03-30T07:12:18.895Z,9.90
2019-03-30T07:14:26.820Z,10.00
2019-03-30T07:16:35.429Z,10.10
2019-03-30T07:18:42.984Z,10.20
2019-03-30T07:20:47.975Z,10.20
2019-03-30T07:22:52.979Z,10.20
2019-03-30T07:24:58.074Z,10.30
2019-03-30T07:27:03.727Z,10.30
2019-03-30T07:29:11.101Z,10.30
2019-03-30T07:31:17.318Z,10.40
2019-03-30T07:33:22.427Z,10.40
2019-03-30T07:35:27.579Z,10.50
2019-03-30T07:37:32.622Z,10.50
2019-03-30T07:39:37.767Z,10.50
2019-03-30T07:41:46.406Z,10.60
2019-03-30T07:43:51.491Z,10.70
2019-03-30T07:46:07.121Z,10.80
2019-03-30T07:48:13.444Z,10.80
2019-03-30T07:50:19.515Z,10.90
2019-03-30T07:52:24.615Z,11.00
2019-03-30T07:54:29.699Z,11.10
2019-03-30T07:56:35.466Z,11.10
2019-03-30T07:58:42.938Z,11.10
2019-03-30T08:00:48.247Z,11.10
2019-03-30T08:02:53.292Z,11.20
2019-03-30T08:04:58.771Z,11.20
2019-03-30T08:07:04.994Z,11.30
2019-03-30T08:09:10.024Z,11.30
2019-03-30T08:11:15.220Z,11.40
2019-03-30T08:13:20.847Z,11.50
2019-03-30T08:15:25.954Z,11.70
2019-03-30T08:17:32.233Z,11.80
2019-03-30T08:19:37.249Z,11.70
2019-03-30T08:21:42.158Z,11.70
2019-03-30T08:23:47.196Z,11.70
2019-03-30T08:25:52.286Z,11.80
2019-03-30T08:27:57.311Z,11.90
2019-03-30T08:30:02.343Z,11.90
2019-03-30T08:32:07.721Z,12.00
2019-03-30T08:34:13.140Z,12.00
2019-03-30T08:36:18.175Z,12.10
2019-03-30T08:38:24.250Z,12.10
2019-03-30T08:40:29.157Z,12.10
2019-03-30T08:42:34.570Z,12.20
2019-03-30T08:44:50.128Z,12.30
2019-03-30T08:46:55.444Z,12.40
2019-03-30T08:49:01.016Z,12.50
2019-03-30T08:51:07.550Z,12.50
2019-03-30T08:53:12.624Z,12.60
2019-03-30T08:55:18.488Z,12.60
2019-03-30T08:57:24.157Z,12.60
2019-03-30T08:59:29.986Z,12.70
2019-03-30T09:01:35.051Z,12.70
2019-03-30T09:03:40.314Z,12.80
2019-03-30T09:05:45.584Z,12.90
2019-03-30T09:07:53.579Z,13.00
2019-03-30T09:09:59.149Z,13.00
2019-03-30T09:12:05.464Z,13.10
2019-03-30T09:14:11.477Z,13.20
2019-03-30T09:16:17.765Z,13.20
2019-03-30T09:18:23.010Z,13.40
2019-03-30T09:20:37.706Z,13.50
2019-03-30T09:22:46.250Z,13.50
2019-03-30T09:24:54.265Z,13.60
2019-03-30T09:26:59.923Z,13.70
2019-03-30T09:29:13.593Z,13.80
2019-03-30T09:31:18.792Z,13.90
2019-03-30T09:33:24.774Z,13.90
2019-03-30T09:35:29.896Z,14.00
2019-03-30T09:37:41.148Z,14.00
2019-03-30T09:39:50.123Z,14.20
2019-03-30T09:41:55.250Z,14.50
2019-03-30T09:44:00.386Z,14.40
2019-03-30T09:46:11.289Z,14.50
2019-03-30T09:48:17.337Z,14.50
2019-03-30T09:50:23.817Z,14.50
2019-03-30T09:52:29.929Z,14.80
2019-03-30T09:54:36.361Z,14.80
2019-03-30T09:56:42.118Z,15.00
2019-03-30T09:58:47.120Z,14.90
2019-03-30T10:00:52.196Z,15.00
2019-03-30T10:02:57.094Z,14.90
2019-03-30T10:05:02.371Z,15.00
2019-03-30T10:07:07.396Z,15.10
2019-03-30T10:09:12.397Z,15.20
2019-03-30T10:11:18.574Z,15.30
2019-03-30T10:13:25.401Z,15.50
2019-03-30T10:15:31.360Z,15.70
2019-03-30T10:17:36.572Z,15.70
2019-03-30T10:19:41.643Z,15.70
2019-03-30T10:21:46.609Z,15.80
2019-03-30T10:23:51.845Z,15.80
2019-03-30T10:25:57.067Z,15.80
2019-03-30T10:28:02.789Z,15.80
2019-03-30T10:30:08.345Z,15.80
2019-03-30T10:32:13.461Z,16.10
2019-03-30T10:34:19.006Z,16.10
2019-03-30T10:36:24.792Z,16.10
2019-03-30T10:38:29.923Z,16.10
2019-03-30T10:40:34.984Z,16.00
2019-03-30T10:42:40.009Z,16.10
2019-03-30T10:44:45.809Z,16.30
2019-03-30T10:46:51.816Z,16.10
2019-03-30T10:48:57.082Z,16.20
2019-03-30T10:51:02.487Z,16.20
2019-03-30T10:53:08.474Z,16.30
2019-03-30T10:55:13.542Z,16.30
2019-03-30T10:57:18.630Z,16.20
2019-03-30T10:59:23.820Z,16.40
2019-03-30T11:01:28.982Z,16.50
2019-03-30T11:03:34.158Z,16.50
2019-03-30T11:05:39.100Z,16.70
2019-03-30T11:07:45.492Z,16.70
2019-03-30T11:09:51.740Z,16.80
2019-03-30T11:11:56.732Z,16.90
2019-03-30T11:14:01.679Z,16.90
2019-03-30T11:16:12.588Z,16.80
2019-03-30T11:18:17.576Z,16.70
2019-03-30T11:20:23.358Z,16.80
2019-03-30T11:22:30.131Z,16.90
2019-03-30T11:24:36.352Z,17.10
2019-03-30T11:26:41.932Z,17.10
2019-03-30T11:28:49.546Z,17.20
2019-03-30T11:30:55.143Z,17.20
2019-03-30T11:33:00.329Z,17.30
2019-03-30T11:35:05.523Z,17.40
2019-03-30T11:37:23.651Z,17.50
2019-03-30T11:39:28.891Z,17.50
2019-03-30T11:41:34.232Z,17.50
2019-03-30T11:43:40.147Z,17.70
2019-03-30T11:45:45.507Z,17.60
2019-03-30T11:47:50.944Z,17.40
2019-03-30T11:49:58.729Z,17.40
2019-03-30T11:52:03.713Z,17.60
2019-03-30T11:54:08.854Z,17.60
2019-03-30T11:56:13.856Z,17.50
2019-03-30T11:58:19.375Z,17.40
2019-03-30T12:00:25.674Z,17.50
2019-03-30T12:02:31.076Z,17.50
2019-03-30T12:04:36.473Z,17.60
2019-03-30T12:06:41.571Z,17.70
2019-03-30T12:08:46.907Z,17.60
2019-03-30T12:10:51.956Z,17.60
2019-03-30T12:12:57.802Z,17.40
2019-03-30T12:15:02.890Z,17.60
2019-03-30T12:17:08.302Z,17.90
2019-03-30T12:19:13.468Z,17.80
2019-03-30T12:21:19.362Z,17.80
2019-03-30T12:23:24.728Z,17.70
2019-03-30T12:25:35.948Z,17.80
2019-03-30T12:27:38.101Z,17.60
2019-03-30T12:29:44.717Z,17.70
2019-03-30T12:31:49.814Z,17.70
2019-03-30T12:33:54.891Z,17.90
2019-03-30T12:35:59.898Z,18.10
2019-03-30T12:38:04.912Z,18.00
2019-03-30T12:40:10.384Z,17.90
2019-03-30T12:42:16.058Z,18.00
2019-03-30T12:44:21.138Z,17.80
2019-03-30T12:46:26.805Z,17.80
2019-03-30T12:48:32.139Z,17.90
2019-03-30T12:50:37.364Z,17.80
2019-03-30T12:52:42.462Z,17.90
2019-03-30T12:54:47.423Z,17.90
2019-03-30T12:56:52.431Z,18.20
2019-03-30T12:58:57.594Z,18.20
2019-03-30T13:01:02.606Z,18.20
2019-03-30T13:03:07.531Z,18.20
2019-03-30T13:05:13.372Z,17.90
2019-03-30T13:07:18.748Z,18.00
2019-03-30T13:09:25.023Z,18.20
2019-03-30T13:11:30.218Z,18.20
2019-03-30T13:13:35.661Z,18.10
2019-03-30T13:15:40.713Z,18.30
2019-03-30T13:17:45.691Z,18.30
2019-03-30T13:19:50.605Z,18.40
2019-03-30T13:21:55.689Z,18.40
2019-03-30T13:24:00.696Z,18.30
2019-03-30T13:26:05.684Z,18.40
2019-03-30T13:28:10.767Z,18.40
2019-03-30T13:30:16.091Z,18.50
2019-03-30T13:32:21.242Z,18.50
2019-03-30T13:34:26.309Z,18.60
2019-03-30T13:36:41.358Z,18.50
2019-03-30T13:38:46.444Z,18.40
2019-03-30T13:40:51.435Z,18.20
2019-03-30T13:42:56.828Z,18.40
2019-03-30T13:45:03.941Z,18.50
2019-03-30T13:47:08.731Z,18.50
2019-03-30T13:49:17.025Z,18.70
2019-03-30T13:51:23.773Z,18.90
2019-03-30T13:53:54.208Z,18.70
2019-03-30T13:55:59.136Z,18.70
2019-03-30T13:58:04.091Z,18.70
2019-03-30T14:00:09.889Z,18.80
2019-03-30T14:02:14.947Z,18.80
2019-03-30T14:04:19.934Z,18.80
2019-03-30T14:06:24.962Z,18.80
2019-03-30T14:08:30.037Z,18.90
2019-03-30T14:10:35.251Z,18.80
2019-03-30T14:12:41.595Z,18.90
2019-03-30T14:14:46.622Z,18.60
2019-03-30T14:16:52.192Z,18.70
2019-03-30T14:18:57.407Z,18.90
2019-03-30T14:21:02.862Z,19.20
2019-03-30T14:23:17.658Z,19.20
2019-03-30T14:25:22.758Z,19.40
2019-03-30T14:27:28.246Z,19.30
2019-03-30T14:29:33.511Z,19.30
2019-03-30T14:31:38.908Z,19.30
2019-03-30T14:33:44.197Z,19.30
2019-03-30T14:35:49.163Z,19.40
2019-03-30T14:37:54.663Z,19.60
2019-03-30T14:39:59.667Z,19.70
2019-03-30T14:42:04.786Z,19.60
2019-03-30T14:44:10.449Z,19.60
2019-03-30T14:46:15.844Z,19.40
2019-03-30T14:48:20.964Z,19.30
2019-03-30T14:50:26.254Z,19.40
2019-03-30T14:52:32.151Z,19.50
2019-03-30T14:54:51.518Z,19.50
2019-03-30T14:56:45.995Z,19.50
2019-03-30T14:58:50.823Z,19.60
2019-03-30T15:00:56.426Z,19.70
2019-03-30T15:03:02.160Z,19.40
2019-03-30T15:05:07.973Z,19.50
2019-03-30T15:07:12.913Z,19.20
2019-03-30T15:09:18.067Z,19.20
2019-03-30T15:11:23.079Z,19.00
2019-03-30T15:13:29.264Z,19.10
2019-03-30T15:15:34.944Z,19.20
2019-03-30T15:17:41.392Z,19.10
2019-03-30T15:19:46.668Z,19.20
2019-03-30T15:21:51.947Z,19.00
2019-03-30T15:23:57.359Z,18.80
2019-03-30T15:26:03.100Z,18.80
2019-03-30T15:28:08.340Z,18.90
2019-03-30T15:30:13.824Z,18.90
2019-03-30T15:32:19.246Z,18.80
2019-03-30T15:34:24.746Z,18.70
2019-03-30T15:36:29.890Z,18.70
2019-03-30T15:38:36.248Z,18.70
2019-03-30T15:40:41.389Z,18.60
2019-03-30T15:42:46.702Z,18.70
2019-03-30T15:44:52.154Z,18.70
2019-03-30T15:46:57.152Z,18.80
2019-03-30T15:49:03.333Z,18.60
2019-03-30T15:51:08.540Z,18.50
2019-03-30T15:53:13.627Z,18.60
2019-03-30T15:55:18.868Z,18.50
2019-03-30T15:57:25.436Z,18.60
2019-03-30T15:59:30.588Z,18.50
2019-03-30T16:01:36.608Z,18.50
2019-03-30T16:03:41.690Z,18.60
2019-03-30T16:05:47.131Z,18.60
2019-03-30T16:07:52.208Z,18.60
2019-03-30T16:09:57.318Z,18.60
2019-03-30T16:12:03.009Z,18.60
2019-03-30T16:14:08.950Z,18.50
2019-03-30T16:16:14.258Z,18.60
2019-03-30T16:18:19.245Z,18.80
2019-03-30T16:20:24.162Z,18.80
2019-03-30T16:22:29.439Z,19.00
2019-03-30T16:24:34.446Z,19.30
2019-03-30T16:26:42.346Z,19.20
2019-03-30T16:28:46.160Z,19.10
2019-03-30T16:30:51.276Z,19.10
2019-03-30T16:32:56.253Z,19.30
2019-03-30T16:35:02.447Z,19.70
2019-03-30T16:37:08.333Z,20.00
2019-03-30T16:39:14.416Z,20.30
2019-03-30T16:41:19.808Z,20.40
2019-03-30T16:43:24.815Z,20.10
2019-03-30T16:45:32.712Z,19.70
2019-03-30T16:47:38.654Z,19.30
2019-03-30T16:49:43.611Z,19.10
2019-03-30T16:51:48.977Z,19.00
2019-03-30T16:53:54.717Z,18.90
2019-03-30T16:55:59.876Z,18.80
2019-03-30T16:58:05.010Z,18.70
2019-03-30T17:00:11.675Z,18.60
2019-03-30T17:02:16.791Z,18.50
2019-03-30T17:04:22.756Z,18.70
2019-03-30T17:06:27.697Z,18.60
2019-03-30T17:08:32.726Z,18.30
2019-03-30T17:10:40.283Z,18.30
2019-03-30T17:12:44.641Z,18.30
2019-03-30T17:14:50.426Z,18.20
2019-03-30T17:16:57.085Z,18.10
2019-03-30T17:19:02.328Z,18.00
2019-03-30T17:21:07.618Z,17.90
2019-03-30T17:23:14.021Z,17.80
2019-03-30T17:25:19.518Z,17.70
2019-03-30T17:27:24.994Z,17.70
2019-03-30T17:29:30.911Z,17.90
2019-03-30T17:31:35.957Z,17.90
2019-03-30T17:33:41.142Z,17.80
2019-03-30T17:35:46.428Z,17.70
2019-03-30T17:37:51.577Z,17.50
2019-03-30T17:39:57.240Z,17.50
2019-03-30T17:42:02.668Z,17.30
2019-03-30T17:44:07.706Z,17.30
2019-03-30T17:46:13.095Z,17.20
2019-03-30T17:48:18.225Z,17.10
2019-03-30T17:50:23.260Z,17.00
2019-03-30T17:52:29.170Z,16.90
2019-03-30T17:54:34.203Z,16.80
2019-03-30T17:56:40.468Z,16.70
2019-03-30T17:58:45.529Z,16.60
2019-03-30T18:00:50.576Z,16.60
2019-03-30T18:02:56.813Z,16.50
2019-03-30T18:05:02.691Z,16.40
2019-03-30T18:07:08.408Z,16.30
2019-03-30T18:09:16.521Z,16.30
2019-03-30T18:11:21.830Z,16.30
2019-03-30T18:13:27.362Z,16.20
2019-03-30T18:15:34.614Z,16.20
2019-03-30T18:17:39.916Z,16.00
2019-03-30T18:19:45.086Z,15.90
2019-03-30T18:21:50.380Z,15.90
2019-03-30T18:23:55.360Z,15.90
2019-03-30T18:26:01.146Z,15.80
2019-03-30T18:28:06.593Z,15.70
2019-03-30T18:30:12.751Z,15.70
2019-03-30T18:32:19.762Z,15.60
2019-03-30T18:34:24.765Z,15.60
2019-03-30T18:36:31.246Z,15.50
2019-03-30T18:38:37.071Z,15.50
2019-03-30T18:40:42.414Z,15.50
2019-03-30T18:42:48.053Z,15.50
2019-03-30T18:44:55.474Z,15.40
2019-03-30T18:47:00.452Z,15.40
2019-03-30T18:49:06.697Z,15.50
2019-03-30T18:51:11.704Z,15.50
2019-03-30T18:53:17.896Z,15.50
2019-03-30T18:55:25.608Z,15.40
2019-03-30T18:57:30.706Z,15.40
2019-03-30T18:59:37.116Z,15.40
2019-03-30T19:01:42.465Z,15.30
2019-03-30T19:03:47.440Z,15.30
2019-03-30T19:05:52.654Z,15.20
2019-03-30T19:08:00.242Z,15.20
2019-03-30T19:10:05.390Z,15.30
2019-03-30T19:12:12.423Z,15.20
2019-03-30T19:14:17.560Z,15.30
2019-03-30T19:16:24.118Z,15.30
2019-03-30T19:18:31.187Z,15.40
2019-03-30T19:20:36.224Z,15.40
2019-03-30T19:22:42.403Z,15.40
2019-03-30T19:24:47.344Z,15.50
2019-03-30T19:26:52.469Z,15.50
2019-03-30T19:28:57.423Z,15.40
2019-03-30T19:31:02.471Z,15.40
2019-03-30T19:33:07.515Z,15.30
2019-03-30T19:35:13.111Z,15.20
2019-03-30T19:37:18.274Z,15.10
2019-03-30T19:39:23.477Z,15.00
2019-03-30T19:41:28.677Z,14.90
2019-03-30T19:43:33.799Z,14.80
2019-03-30T19:45:39.035Z,14.70
2019-03-30T19:47:44.082Z,14.60
2019-03-30T19:49:49.406Z,14.60
2019-03-30T19:51:54.585Z,14.50
2019-03-30T19:54:03.087Z,14.50
2019-03-30T19:56:08.209Z,14.50
2019-03-30T19:58:13.276Z,14.50
2019-03-30T20:00:18.375Z,14.50
2019-03-30T20:02:23.491Z,14.40
2019-03-30T20:04:29.377Z,14.40
2019-03-30T20:06:34.585Z,14.40
2019-03-30T20:08:39.675Z,14.40
2019-03-30T20:10:46.511Z,14.30
2019-03-30T20:12:52.181Z,14.30
2019-03-30T20:14:57.430Z,14.30
2019-03-30T20:17:02.737Z,14.20
2019-03-30T20:19:12.702Z,14.30
2019-03-30T20:21:15.169Z,14.20
2019-03-30T20:23:21.277Z,14.20
2019-03-30T20:25:26.738Z,14.20
2019-03-30T20:27:31.880Z,14.20
2019-03-30T20:29:37.612Z,14.20
2019-03-30T20:31:42.649Z,14.10
2019-03-30T20:33:48.496Z,14.10
2019-03-30T20:35:53.626Z,14.10
2019-03-30T20:37:58.816Z,14.20
2019-03-30T20:40:04.368Z,14.20
2019-03-30T20:42:11.135Z,14.20
2019-03-30T20:44:17.431Z,14.20
2019-03-30T20:46:23.165Z,14.20
2019-03-30T20:48:28.999Z,14.20
2019-03-30T20:50:35.266Z,14.20
2019-03-30T20:52:42.575Z,14.10
2019-03-30T20:54:51.817Z,14.10
2019-03-30T20:56:57.117Z,14.10
2019-03-30T20:59:03.184Z,14.00
2019-03-30T21:01:08.429Z,13.90
2019-03-30T21:03:13.683Z,13.90
2019-03-30T21:05:20.423Z,13.80
2019-03-30T21:07:28.865Z,13.80
2019-03-30T21:09:39.786Z,13.80
2019-03-30T21:11:46.282Z,13.70
2019-03-30T21:13:56.584Z,13.70
2019-03-30T21:16:01.011Z,13.70
2019-03-30T21:18:10.683Z,13.60
2019-03-30T21:20:19.505Z,13.50
2019-03-30T21:22:28.126Z,13.50
2019-03-30T21:24:33.565Z,13.40
2019-03-30T21:26:40.504Z,13.40
2019-03-30T21:28:49.082Z,13.40
2019-03-30T21:30:54.348Z,13.40
2019-03-30T21:32:59.644Z,13.30
2019-03-30T21:35:07.675Z,13.30
2019-03-30T21:37:14.522Z,13.30
2019-03-30T21:39:20.662Z,13.20
2019-03-30T21:41:26.065Z,13.20
2019-03-30T21:43:31.176Z,13.10
2019-03-30T21:45:36.395Z,13.10
2019-03-30T21:47:44.540Z,13.00
2019-03-30T21:49:50.285Z,13.00
2019-03-30T21:51:55.521Z,13.10
2019-03-30T21:54:00.705Z,13.10
2019-03-30T21:56:06.385Z,13.10
2019-03-30T21:58:11.547Z,13.00
2019-03-30T22:00:30.777Z,13.00
2019-03-30T22:02:36.179Z,12.90
2019-03-30T22:04:41.506Z,12.90
2019-03-30T22:06:46.970Z,12.80
2019-03-30T22:08:52.821Z,12.80
2019-03-30T22:10:58.013Z,12.80
2019-03-30T22:13:03.103Z,12.80
2019-03-30T22:15:08.368Z,12.70
2019-03-30T22:17:13.520Z,12.60
2019-03-30T22:19:18.654Z,12.60
2019-03-30T22:21:23.779Z,12.50
2019-03-30T22:23:28.776Z,12.50
2019-03-30T22:25:34.904Z,12.40
2019-03-30T22:27:39.924Z,12.30
2019-03-30T22:29:45.324Z,12.30
2019-03-30T22:31:50.446Z,12.20
2019-03-30T22:33:57.136Z,12.20
2019-03-30T22:36:03.582Z,12.20
2019-03-30T22:38:09.177Z,12.10
2019-03-30T22:40:14.493Z,12.20
2019-03-30T22:42:19.861Z,12.10
2019-03-30T22:44:25.764Z,12.10
2019-03-30T22:46:31.113Z,12.10
2019-03-30T22:48:36.651Z,12.20
2019-03-30T22:50:42.082Z,12.30
2019-03-30T22:52:47.049Z,12.40
2019-03-30T22:54:52.100Z,12.40
2019-03-30T22:56:57.442Z,12.40
2019-03-30T22:59:03.431Z,12.30
2019-03-30T23:01:11.658Z,12.30
2019-03-30T23:03:17.223Z,12.20
2019-03-30T23:05:22.234Z,12.10
2019-03-30T23:07:27.415Z,12.10
2019-03-30T23:09:32.723Z,12.10
2019-03-30T23:11:37.801Z,12.10
2019-03-30T23:13:42.910Z,12.10
2019-03-30T23:15:48.944Z,12.10
2019-03-30T23:17:54.283Z,12.00
2019-03-30T23:19:59.355Z,11.90
2019-03-30T23:22:04.394Z,11.80
2019-03-30T23:24:09.608Z,11.80
2019-03-30T23:26:14.849Z,11.70
2019-03-30T23:28:22.018Z,11.80
2019-03-30T23:30:27.137Z,11.70
2019-03-30T23:32:32.502Z,11.70
2019-03-30T23:34:37.584Z,11.70
2019-03-30T23:36:44.366Z,11.70
2019-03-30T23:38:49.472Z,11.60
2019-03-30T23:40:54.784Z,11.50
2019-03-30T23:43:00.300Z,11.50
2019-03-30T23:45:05.834Z,11.50
2019-03-30T23:47:10.939Z,11.50
2019-03-30T23:49:15.941Z,11.40
2019-03-30T23:51:22.177Z,11.40
2019-03-30T23:53:27.110Z,11.30
2019-03-30T23:55:32.167Z,11.30
2019-03-30T23:57:37.319Z,11.20
2019-03-30T23:59:42.290Z,11.10
